Time;durP1;ratioP1;P1;durP2;ratioP2;P2;SDS_P1;SDS_P2;PMS_P1;PMS_P2;Temp;Humidity;BMP_temperature;BMP_pressure;BME280_temperature;BME280_humidity;BME280_pressure;Samples;Min_cycle;Max_cycle;Signal;HPM_P1;HPM_P2
2023/08/29 00:00:00;;;;;;;5.53;1.95;;;;;;;15.54;100.00;101206.44;5010390;28;20080;-63
2023/08/29 00:02:32;;;;;;;3.70;1.77;;;;;;;15.55;100.00;101206.28;5007695;28;20530;-64
2023/08/29 00:04:59;;;;;;;7.03;1.90;;;;;;;15.57;100.00;101199.00;5011658;28;20060;-64
2023/08/29 00:07:25;;;;;;;3.03;1.65;;;;;;;15.53;100.00;101186.31;5016141;28;20046;-63
2023/08/29 00:09:52;;;;;;;3.47;1.70;;;;;;;15.57;100.00;101187.59;5013577;28;20085;-63
2023/08/29 00:12:20;;;;;;;3.97;1.52;;;;;;;15.60;100.00;101180.16;5002139;28;20085;-64
2023/08/29 00:14:47;;;;;;;4.18;1.85;;;;;;;15.59;100.00;101175.03;5014407;28;20064;-65
2023/08/29 00:17:16;;;;;;;3.33;1.80;;;;;;;15.56;100.00;101181.50;4992065;28;20046;-63
2023/08/29 00:19:42;;;;;;;4.47;2.47;;;;;;;15.60;100.00;101181.97;5011741;28;20042;-63
2023/08/29 00:22:09;;;;;;;5.50;2.30;;;;;;;15.60;100.00;101174.03;5004327;28;20732;-64
2023/08/29 00:24:35;;;;;;;3.05;1.80;;;;;;;15.57;100.00;101177.84;5006182;28;20144;-63
2023/08/29 00:27:02;;;;;;;3.67;1.77;;;;;;;15.50;100.00;101158.38;5016450;28;20451;-64
2023/08/29 00:29:29;;;;;;;4.15;2.00;;;;;;;15.51;100.00;101161.84;5005333;28;20489;-64
2023/08/29 00:31:55;;;;;;;6.20;1.70;;;;;;;15.44;100.00;101153.75;5007230;28;20133;-63
2023/08/29 00:34:22;;;;;;;5.88;1.77;;;;;;;15.42;100.00;101156.56;5001384;28;20422;-63
2023/08/29 00:36:48;;;;;;;2.67;1.80;;;;;;;15.37;100.00;101161.56;5007485;28;20100;-64
2023/08/29 00:39:15;;;;;;;4.65;1.75;;;;;;;15.34;100.00;101159.25;5014301;28;20131;-63
2023/08/29 00:41:41;;;;;;;4.20;1.88;;;;;;;15.33;100.00;101162.91;5018429;28;20606;-63
2023/08/29 00:44:07;;;;;;;4.18;2.28;;;;;;;15.26;100.00;101159.28;5016360;28;20050;-63
2023/08/29 00:46:34;;;;;;;2.92;1.63;;;;;;;15.22;100.00;101160.59;5012706;28;20045;-63
2023/08/29 00:49:00;;;;;;;4.03;1.80;;;;;;;15.22;100.00;101165.88;5004380;28;20045;-64
2023/08/29 00:51:27;;;;;;;5.05;1.80;;;;;;;15.23;100.00;101164.91;5006431;28;20164;-64
2023/08/29 00:53:53;;;;;;;3.58;1.60;;;;;;;15.19;100.00;101156.50;5023432;28;20093;-63
2023/08/29 00:56:20;;;;;;;4.05;1.70;;;;;;;15.16;100.00;101146.25;5025802;28;20437;-63
2023/08/29 00:58:46;;;;;;;3.63;1.50;;;;;;;15.14;100.00;101144.78;5019675;28;20096;-64
2023/08/29 01:01:14;;;;;;;5.60;1.83;;;;;;;15.15;100.00;101154.34;5011690;28;20100;-63
2023/08/29 01:03:41;;;;;;;6.72;1.92;;;;;;;15.11;100.00;101150.38;5020566;28;20283;-63
2023/08/29 01:06:08;;;;;;;3.38;1.70;;;;;;;15.08;100.00;101148.09;5013802;28;20283;-63
2023/08/29 01:08:34;;;;;;;9.68;1.95;;;;;;;15.07;100.00;101155.16;5014511;28;20104;-63
2023/08/29 01:11:24;;;;;;;2.65;1.55;;;;;;;15.03;100.00;101160.00;5009071;28;20104;-63
2023/08/29 01:14:09;;;;;;;2.17;1.33;;;;;;;15.02;100.00;101146.94;5008840;28;20049;-64
2023/08/29 01:16:40;;;;;;;6.05;1.63;;;;;;;14.97;100.00;101146.59;5010526;28;20112;-63
2023/08/29 01:19:13;;;;;;;4.40;1.63;;;;;;;14.94;100.00;101152.25;4990506;28;20049;-64
2023/08/29 01:21:47;;;;;;;3.78;1.63;;;;;;;14.91;100.00;101137.53;5010511;28;20066;-64
2023/08/29 01:24:25;;;;;;;1.48;1.23;;;;;;;14.92;100.00;101147.13;5007638;28;20095;-63
2023/08/29 01:26:53;;;;;;;4.18;1.50;;;;;;;14.88;100.00;101155.53;5000396;28;20104;-63
2023/08/29 01:29:20;;;;;;;;;;;;;;;14.87;100.00;101156.53;5009554;28;20058;-64
2023/08/29 01:31:48;;;;;;;4.75;1.60;;;;;;;14.87;100.00;101159.97;4988354;28;19935;-64
2023/08/29 01:34:15;;;;;;;4.85;1.23;;;;;;;14.87;100.00;101159.16;4990661;28;20502;-63
2023/08/29 01:36:43;;;;;;;3.17;1.23;;;;;;;14.82;100.00;101165.78;5007466;28;20140;-63
2023/08/29 01:39:09;;;;;;;2.83;1.40;;;;;;;14.78;100.00;101161.81;4999528;28;20517;-65
2023/08/29 01:41:36;;;;;;;6.97;1.27;;;;;;;14.76;100.00;101165.59;5010103;28;20069;-63
2023/08/29 01:44:04;;;;;;;2.15;1.33;;;;;;;14.74;100.00;101168.44;4998155;28;20080;-63
2023/08/29 01:46:31;;;;;;;2.90;1.30;;;;;;;14.73;100.00;101169.41;5007404;28;20061;-64
2023/08/29 01:49:00;;;;;;;3.88;1.58;;;;;;;14.67;100.00;101164.78;5005427;28;20454;-64
2023/08/29 01:51:27;;;;;;;7.40;1.30;;;;;;;14.69;100.00;101176.00;5010128;28;20046;-63
2023/08/29 01:53:54;;;;;;;3.10;1.40;;;;;;;14.69;100.00;101170.72;5005642;28;20046;-63
2023/08/29 01:56:24;;;;;;;5.05;1.45;;;;;;;14.72;100.00;101166.91;5006221;28;20048;-63
2023/08/29 01:58:53;;;;;;;3.45;1.40;;;;;;;14.68;100.00;101163.81;5001457;28;20050;-64
2023/08/29 02:01:20;;;;;;;1.95;1.30;;;;;;;14.70;100.00;101175.03;5000512;28;20058;-63
2023/08/29 02:03:50;;;;;;;4.10;1.67;;;;;;;14.72;100.00;101178.31;5005294;28;20500;-65
2023/08/29 02:06:16;;;;;;;3.08;1.30;;;;;;;14.73;100.00;101184.44;5000268;28;20931;-64
2023/08/29 02:08:44;;;;;;;4.25;1.40;;;;;;;14.71;100.00;101181.13;5006714;28;20054;-64
2023/08/29 02:11:11;;;;;;;1.45;1.20;;;;;;;14.71;100.00;101183.75;5013767;28;20038;-64
2023/08/29 02:13:37;;;;;;;4.22;1.40;;;;;;;14.65;100.00;101187.06;5011777;28;20132;-63
2023/08/29 02:16:03;;;;;;;6.50;1.23;;;;;;;14.59;100.00;101188.53;5018621;28;20140;-64
2023/08/29 02:18:30;;;;;;;4.20;1.20;;;;;;;14.58;100.00;101200.94;5006939;28;20096;-63
2023/08/29 02:20:56;;;;;;;7.47;1.50;;;;;;;14.53;100.00;101200.56;5005296;28;20475;-63
2023/08/29 02:23:23;;;;;;;3.22;1.15;;;;;;;14.53;100.00;101200.56;4999236;28;20063;-64
2023/08/29 02:26:03;;;;;;;3.35;1.30;;;;;;;14.58;100.00;101202.72;5015577;28;20081;-64
2023/08/29 02:28:37;;;;;;;3.22;1.50;;;;;;;14.59;100.00;101196.47;5007059;28;20861;-63
2023/08/29 02:31:04;;;;;;;3.17;1.30;;;;;;;14.57;100.00;101203.72;5016668;28;20092;-63
2023/08/29 02:33:32;;;;;;;3.80;1.40;;;;;;;14.53;100.00;101199.72;4999006;28;20649;-63
2023/08/29 02:35:58;;;;;;;2.58;1.42;;;;;;;14.54;100.00;101199.53;5011069;28;20377;-63
2023/08/29 02:38:25;;;;;;;2.75;1.10;;;;;;;14.58;100.00;101202.72;5009689;28;20098;-63
2023/08/29 02:40:51;;;;;;;1.50;1.10;;;;;;;14.59;100.00;101196.47;5008767;28;20169;-63
2023/08/29 02:43:18;;;;;;;3.17;1.20;;;;;;;14.59;100.00;101202.56;5007617;28;20483;-64
2023/08/29 02:45:45;;;;;;;2.30;1.20;;;;;;;14.60;100.00;101204.22;5003342;28;20101;-63
2023/08/29 02:48:11;;;;;;;2.13;1.27;;;;;;;14.61;100.00;101212.97;4997899;28;20061;-64
2023/08/29 02:50:38;;;;;;;2.83;1.35;;;;;;;14.59;100.00;101215.75;5016049;28;20042;-64
2023/08/29 02:53:04;;;;;;;2.88;1.17;;;;;;;14.57;100.00;101217.75;5009952;28;20481;-63
2023/08/29 02:55:30;;;;;;;3.13;1.30;;;;;;;14.58;100.00;101216.78;5009731;28;20050;-64
2023/08/29 02:57:57;;;;;;;3.00;1.38;;;;;;;14.59;100.00;101222.88;5002138;28;20702;-64
2023/08/29 03:00:24;;;;;;;3.35;1.20;;;;;;;14.48;100.00;101215.22;5013266;28;20042;-64
2023/08/29 03:02:50;;;;;;;3.38;1.30;;;;;;;14.48;100.00;101223.94;5002055;28;20520;-65
2023/08/29 03:05:17;;;;;;;6.75;1.38;;;;;;;14.45;100.00;101221.66;5005506;28;20433;-63
2023/08/29 03:07:43;;;;;;;2.15;1.30;;;;;;;14.41;100.00;101222.97;5009510;28;20149;-65
2023/08/29 03:10:10;;;;;;;3.45;1.33;;;;;;;14.37;100.00;101224.28;5003179;28;20797;-64
2023/08/29 03:12:36;;;;;;;3.75;1.40;;;;;;;14.34;100.00;101227.22;5013391;28;20045;-63
2023/08/29 03:15:03;;;;;;;4.75;1.40;;;;;;;14.35;100.00;101229.72;5012892;28;20053;-63
2023/08/29 03:17:29;;;;;;;3.60;1.30;;;;;;;14.35;100.00;101229.72;5010577;28;20046;-63
2023/08/29 03:19:56;;;;;;;4.82;1.55;;;;;;;14.37;100.00;101225.09;5009684;28;20132;-64
2023/08/29 03:22:22;;;;;;;3.70;1.63;;;;;;;14.38;100.00;101226.75;5014948;28;20045;-64
2023/08/29 03:24:49;;;;;;;2.25;1.40;;;;;;;14.38;100.00;101215.38;5013168;28;20059;-64
2023/08/29 03:27:15;;;;;;;4.13;1.30;;;;;;;14.39;100.00;101214.38;5014518;28;20112;-63
2023/08/29 03:29:42;;;;;;;2.92;1.30;;;;;;;14.38;100.00;101208.25;5004931;28;20466;-64
2023/08/29 03:32:08;;;;;;;2.58;1.20;;;;;;;14.38;100.00;101202.97;5002938;28;20077;-63
2023/08/29 03:34:34;;;;;;;2.70;1.27;;;;;;;14.39;100.00;101206.47;5016855;28;20123;-63
2023/08/29 03:37:01;;;;;;;4.40;1.20;;;;;;;14.39;100.00;101203.84;5024651;28;20450;-64
2023/08/29 03:39:27;;;;;;;4.38;1.50;;;;;;;14.33;100.00;101196.53;5005405;28;20777;-63
2023/08/29 03:41:54;;;;;;;7.93;1.23;;;;;;;14.33;100.00;101204.44;5008476;28;20049;-63
2023/08/29 03:44:20;;;;;;;3.00;1.33;;;;;;;14.27;100.00;101195.41;5004330;28;20053;-64
2023/08/29 03:46:47;;;;;;;3.05;1.30;;;;;;;14.26;100.00;101201.66;5017573;28;20737;-63
2023/08/29 03:49:13;;;;;;;3.45;1.40;;;;;;;14.23;100.00;101197.53;5006583;28;20081;-63
2023/08/29 03:51:40;;;;;;;4.00;1.27;;;;;;;14.23;100.00;101197.53;5009954;28;20135;-64
2023/08/29 03:54:06;;;;;;;4.68;1.60;;;;;;;14.22;100.00;101195.03;5005584;28;20077;-64
2023/08/29 03:56:33;;;;;;;2.75;1.30;;;;;;;14.20;100.00;101184.66;5007738;28;20045;-63
2023/08/29 03:59:01;;;;;;;7.30;1.67;;;;;;;14.15;100.00;101176.41;5007297;28;20054;-64
2023/08/29 04:01:29;;;;;;;8.18;2.00;;;;;;;14.12;100.00;101174.06;5005859;28;20549;-64
2023/08/29 04:03:55;;;;;;;5.07;1.92;;;;;;;14.06;100.00;101168.63;5017382;28;20398;-63
2023/08/29 04:06:22;;;;;;;3.00;1.73;;;;;;;14.01;100.00;101167.31;5003650;28;20061;-65
2023/08/29 04:08:49;;;;;;;2.00;1.27;;;;;;;13.96;100.00;101168.75;5004792;28;20085;-64
2023/08/29 04:11:15;;;;;;;3.55;1.50;;;;;;;13.93;100.00;101167.25;5008970;28;20546;-63
2023/08/29 04:13:41;;;;;;;3.40;1.63;;;;;;;13.81;100.00;101148.25;5003118;28;20057;-64
2023/08/29 04:16:08;;;;;;;5.18;1.70;;;;;;;13.82;100.00;101152.56;5001273;28;20053;-63
2023/08/29 04:18:34;;;;;;;2.40;1.40;;;;;;;13.80;100.00;101149.25;4999719;28;20097;-63
2023/08/29 04:21:01;;;;;;;2.75;1.70;;;;;;;13.77;100.00;101143.47;5005725;28;20149;-63
2023/08/29 04:23:27;;;;;;;2.78;1.67;;;;;;;13.70;100.00;101129.28;5009742;28;20151;-63
2023/08/29 04:26:01;;;;;;;5.47;1.95;;;;;;;13.66;100.00;101139.31;5012341;28;20072;-64
2023/08/29 04:28:27;;;;;;;4.97;2.00;;;;;;;13.63;100.00;101145.72;5011433;28;20076;-64
2023/08/29 04:30:54;;;;;;;6.93;2.13;;;;;;;13.62;100.00;101144.09;5005951;28;20132;-63
2023/08/29 04:33:20;;;;;;;3.60;1.80;;;;;;;13.67;100.00;101138.34;5017547;28;20053;-63
2023/08/29 04:35:51;;;;;;;2.92;1.80;;;;;;;13.69;100.00;101132.91;5004663;28;20517;-63
2023/08/29 04:38:17;;;;;;;4.68;2.25;;;;;;;13.70;100.00;101129.28;5017761;28;20045;-63
2023/08/29 04:40:45;;;;;;;6.45;1.90;;;;;;;13.65;100.00;101122.66;5006782;28;20057;-63
2023/08/29 04:43:11;;;;;;;5.93;1.90;;;;;;;13.64;100.00;101123.66;4991797;28;20571;-62
2023/08/29 04:45:39;;;;;;;4.22;1.85;;;;;;;13.63;100.00;101118.56;5016052;28;20229;-63
2023/08/29 04:48:06;;;;;;;2.72;1.65;;;;;;;13.61;100.00;101115.25;5001255;28;20544;-63
2023/08/29 04:50:33;;;;;;;3.30;1.70;;;;;;;13.62;100.00;101114.25;5002875;28;20073;-64
2023/08/29 04:52:59;;;;;;;3.95;1.65;;;;;;;13.59;100.00;101120.66;5003069;28;20054;-64
2023/08/29 04:55:26;;;;;;;5.22;1.95;;;;;;;13.56;100.00;101122.78;5013990;28;20072;-63
2023/08/29 04:57:54;;;;;;;5.75;2.15;;;;;;;13.57;100.00;101127.09;5015565;28;20064;-64
2023/08/29 05:00:21;;;;;;;4.53;1.90;;;;;;;13.54;100.00;101124.75;5011768;28;20236;-64
2023/08/29 05:02:47;;;;;;;3.28;1.70;;;;;;;13.49;100.00;101124.44;5011606;28;20601;-65
2023/08/29 05:05:14;;;;;;;3.83;1.73;;;;;;;13.48;100.00;101133.31;5006129;28;20050;-62
2023/08/29 05:07:40;;;;;;;4.13;2.13;;;;;;;13.45;100.00;101137.09;5020724;28;20055;-64
2023/08/29 05:10:07;;;;;;;3.45;1.77;;;;;;;13.41;100.00;101131.31;5005006;28;20100;-63
2023/08/29 05:12:33;;;;;;;6.07;1.75;;;;;;;13.42;100.00;101138.22;5016834;28;20558;-63
2023/08/29 05:15:00;;;;;;;3.25;1.80;;;;;;;13.38;100.00;101149.22;5001050;28;20169;-63
2023/08/29 05:17:26;;;;;;;3.92;2.10;;;;;;;13.37;100.00;101156.31;5005125;28;20054;-64
2023/08/29 05:19:54;;;;;;;2.85;1.33;;;;;;;13.38;100.00;101157.94;5008549;28;20521;-63
2023/08/29 05:22:21;;;;;;;2.03;1.80;;;;;;;13.39;100.00;101162.25;5009076;28;20052;-63
2023/08/29 05:24:47;;;;;;;5.57;2.60;;;;;;;13.40;100.00;101155.97;5008405;28;20703;-63
2023/08/29 05:27:14;;;;;;;4.43;2.90;;;;;;;13.40;100.00;101161.25;5011395;28;20650;-63
2023/08/29 05:29:41;;;;;;;7.97;3.08;;;;;;;13.44;100.00;101159.97;5003374;28;20108;-65
2023/08/29 05:32:07;;;;;;;5.68;2.72;;;;;;;13.47;100.00;101156.19;4999834;28;20131;-64
2023/08/29 05:34:34;;;;;;;5.28;2.50;;;;;;;13.50;100.00;101160.31;5012202;28;20079;-63
2023/08/29 05:37:00;;;;;;;7.40;2.17;;;;;;;13.53;100.00;101166.13;5007625;28;20060;-64
2023/08/29 05:39:27;;;;;;;3.75;2.10;;;;;;;13.52;100.00;101161.81;5003401;28;20049;-64
2023/08/29 05:41:53;;;;;;;7.00;2.13;;;;;;;13.55;100.00;101153.59;5005251;28;20049;-62
2023/08/29 05:44:20;;;;;;;6.28;2.20;;;;;;;13.59;100.00;101159.38;5008030;28;20140;-63
2023/08/29 05:46:46;;;;;;;3.25;1.77;;;;;;;13.54;100.00;101151.94;5016911;28;20049;-64
2023/08/29 05:49:13;;;;;;;3.17;1.90;;;;;;;13.55;100.00;101155.41;5008001;28;20052;-63
2023/08/29 05:51:39;;;;;;;5.32;1.80;;;;;;;13.51;100.00;101147.00;5010153;28;20078;-63
2023/08/29 05:54:06;;;;;;;4.97;1.88;;;;;;;13.54;100.00;101148.47;5010365;28;20112;-63
2023/08/29 05:56:32;;;;;;;4.45;2.00;;;;;;;13.52;100.00;101147.81;5004944;28;20051;-63
2023/08/29 05:58:59;;;;;;;4.95;1.83;;;;;;;13.53;100.00;101146.84;5009690;28;20465;-64
2023/08/29 06:01:26;;;;;;;7.72;2.40;;;;;;;13.49;100.00;101148.97;5015162;28;20057;-64
2023/08/29 06:03:53;;;;;;;5.18;2.15;;;;;;;13.50;100.00;101157.69;5006907;28;20419;-64
2023/08/29 06:06:20;;;;;;;2.70;2.00;;;;;;;13.52;100.00;101161.81;5005071;28;20057;-64
2023/08/29 06:08:46;;;;;;;3.88;2.30;;;;;;;13.55;100.00;101153.59;5012124;28;20084;-65
2023/08/29 06:11:13;;;;;;;4.57;2.55;;;;;;;13.58;100.00;101152.44;5004803;28;20037;-64
2023/08/29 06:13:40;;;;;;;4.38;2.25;;;;;;;13.66;100.00;101147.22;5001066;28;20058;-63
2023/08/29 06:16:06;;;;;;;3.53;2.30;;;;;;;13.66;100.00;101155.13;5019421;28;20057;-63
2023/08/29 06:18:35;;;;;;;5.20;2.80;;;;;;;13.72;100.00;101146.59;5007023;28;20132;-63
2023/08/29 06:21:04;;;;;;;5.78;2.80;;;;;;;13.77;100.00;101152.19;5007653;28;20543;-64
2023/08/29 06:23:30;;;;;;;5.45;2.67;;;;;;;13.83;100.00;101153.38;4996256;28;20046;-63
2023/08/29 06:25:58;;;;;;;5.05;3.08;;;;;;;13.85;100.00;101152.22;5009145;28;20128;-64
2023/08/29 06:28:24;;;;;;;4.55;2.53;;;;;;;13.93;100.00;101147.97;5007571;28;20060;-65
2023/08/29 06:30:50;;;;;;;3.97;2.35;;;;;;;13.97;100.00;101146.66;5009801;28;20049;-63
2023/08/29 06:33:17;;;;;;;3.97;2.50;;;;;;;14.03;100.00;101151.28;5006383;28;20058;-64
2023/08/29 06:35:43;;;;;;;3.97;2.03;;;;;;;14.09;100.00;101153.28;5001243;28;20541;-64
2023/08/29 06:38:10;;;;;;;4.97;2.60;;;;;;;14.13;100.00;101153.78;5005506;28;20832;-65
2023/08/29 06:40:36;;;;;;;4.60;2.28;;;;;;;14.14;100.00;101147.53;5004485;28;20050;-64
2023/08/29 06:43:03;;;;;;;3.33;2.20;;;;;;;14.10;100.00;101154.13;5010202;28;20050;-64
2023/08/29 06:45:29;;;;;;;4.25;2.53;;;;;;;14.18;100.00;101154.97;5022163;28;20152;-64
2023/08/29 06:47:56;;;;;;;7.65;2.58;;;;;;;14.22;100.00;101156.28;5008616;28;20136;-64
2023/08/29 06:50:23;;;;;;;3.55;2.58;;;;;;;14.30;100.00;101155.47;5018712;28;20041;-65
2023/08/29 06:52:49;;;;;;;4.90;2.72;;;;;;;14.28;100.00;101148.72;5000200;28;20057;-64
2023/08/29 06:55:16;;;;;;;3.95;2.55;;;;;;;14.39;100.00;101149.22;5021876;28;20100;-63
2023/08/29 06:57:43;;;;;;;3.90;2.80;;;;;;;14.53;100.00;101144.28;5013428;28;20049;-64
2023/08/29 07:00:10;;;;;;;6.72;3.55;;;;;;;14.62;100.00;101156.53;5014363;28;20162;-64
2023/08/29 07:02:37;;;;;;;4.15;2.42;;;;;;;14.70;100.00;101153.06;5009914;28;20034;-63
2023/08/29 07:05:04;;;;;;;5.07;2.40;;;;;;;14.81;100.00;101144.81;4998513;28;20674;-64
2023/08/29 07:07:31;;;;;;;5.97;2.30;;;;;;;14.89;100.00;101130.78;5011179;28;20140;-64
2023/08/29 07:09:57;;;;;;;5.78;2.38;;;;;;;14.93;100.00;101135.53;5011814;28;20053;-65
2023/08/29 07:12:24;;;;;;;4.20;2.05;;;;;;;14.99;100.00;101136.69;5026017;28;20545;-64
2023/08/29 07:14:50;;;;;;;4.25;2.20;;;;;;;15.13;100.00;101146.59;4995682;28;20108;-64
2023/08/29 07:17:17;;;;;;;4.40;2.40;;;;;;;15.31;100.00;101138.47;5014239;28;20129;-64
2023/08/29 07:19:43;;;;;;;3.17;1.92;;;;;;;15.47;100.00;101132.28;5007242;28;20692;-64
2023/08/29 07:22:10;;;;;;;3.97;2.05;;;;;;;15.62;100.00;101130.56;5011173;28;20527;-63
2023/08/29 07:24:50;;;;;;;6.93;2.40;;;;;;;15.78;100.00;101134.19;5018170;28;20774;-64
2023/08/29 07:27:17;;;;;;;2.95;1.90;;;;;;;15.95;100.00;101142.84;4998515;28;20132;-64
2023/08/29 07:29:43;;;;;;;4.35;2.20;;;;;;;16.08;100.00;101143.09;5013807;28;20049;-65
2023/08/29 07:32:10;;;;;;;3.33;1.70;;;;;;;16.17;100.00;101143.84;5000536;28;20056;-64
2023/08/29 07:34:39;;;;;;;8.38;2.13;;;;;;;16.31;100.00;101137.81;5002366;28;20101;-63
2023/08/29 07:37:06;;;;;;;3.17;1.70;;;;;;;16.43;100.00;101138.22;5024975;28;20282;-65
2023/08/29 07:39:33;;;;;;;4.28;1.60;;;;;;;16.55;100.00;101125.41;5018156;28;20080;-63
2023/08/29 07:42:00;;;;;;;3.38;1.90;;;;;;;16.56;100.00;101132.31;5019767;28;20056;-63
2023/08/29 07:44:26;;;;;;;5.22;1.30;;;;;;;16.65;100.00;101128.63;5004269;28;20459;-63
2023/08/29 07:46:53;;;;;;;2.58;1.35;;;;;;;16.70;100.00;101142.16;5017627;28;20076;-65
2023/08/29 07:49:39;;;;;;;2.95;1.23;;;;;;;16.76;100.00;101137.97;5016427;28;20107;-65
2023/08/29 07:52:05;;;;;;;4.40;1.30;;;;;;;16.72;100.00;101148.09;5013163;28;20073;-63
2023/08/29 07:54:32;;;;;;;4.32;1.80;;;;;;;16.78;100.00;101149.22;5011439;28;20105;-63
2023/08/29 07:56:59;;;;;;;7.93;2.55;;;;;;;16.87;100.00;101155.28;5006728;28;20839;-63
2023/08/29 07:59:25;;;;;;;3.40;1.60;;;;;;;16.79;100.00;101146.38;5017620;28;20053;-66
2023/08/29 08:01:52;;;;;;;5.60;1.60;;;;;;;16.76;100.00;101156.53;5002416;28;20081;-65
2023/08/29 08:04:18;;;;;;;3.85;1.40;;;;;;;16.89;100.00;101153.28;5017507;28;20129;-65
2023/08/29 08:06:45;;;;;;;2.22;1.48;;;;;;;16.99;100.00;101149.38;5014116;28;20176;-65
2023/08/29 08:09:12;;;;;;;6.22;2.20;;;;;;;17.00;100.00;101155.50;5019940;28;20140;-64
2023/08/29 08:11:39;;;;;;;4.60;1.92;;;;;;;17.15;100.00;101151.03;5010853;28;20140;-65
2023/08/29 08:14:05;;;;;;;6.20;2.08;;;;;;;17.18;100.00;101149.84;4999275;28;20050;-63
2023/08/29 08:16:32;;;;;;;3.13;1.42;;;;;;;17.29;100.00;101151.19;5013117;28;20081;-64
2023/08/29 08:18:58;;;;;;;5.05;1.80;;;;;;;17.38;100.00;101155.41;5014072;28;20042;-63
2023/08/29 08:21:25;;;;;;;4.55;1.77;;;;;;;17.45;100.00;101156.34;5004034;28;20655;-63
2023/08/29 08:23:52;;;;;;;5.28;1.60;;;;;;;17.61;100.00;101154.50;5006201;28;20085;-65
2023/08/29 08:26:18;;;;;;;6.30;1.85;;;;;;;17.61;100.00;101155.31;5018728;28;20041;-66
2023/08/29 08:28:45;;;;;;;2.42;1.40;;;;;;;17.69;100.00;101155.22;5005193;28;20462;-63
2023/08/29 08:31:11;;;;;;;3.25;1.40;;;;;;;17.76;100.00;101155.31;5001825;28;20050;-65
2023/08/29 08:33:40;;;;;;;4.22;1.27;;;;;;;17.82;100.00;101157.22;5010324;28;20053;-64
2023/08/29 08:36:07;;;;;;;2.80;1.30;;;;;;;17.85;100.00;101151.56;5005765;28;20124;-64
2023/08/29 08:38:34;;;;;;;2.60;1.27;;;;;;;17.90;100.00;101157.13;5009233;28;20247;-65
2023/08/29 08:41:01;;;;;;;2.60;1.00;;;;;;;18.02;100.00;101151.34;5004668;28;20049;-65
2023/08/29 08:43:29;;;;;;;3.33;1.10;;;;;;;18.11;100.00;101153.72;5001647;28;20041;-64
2023/08/29 08:45:56;;;;;;;6.85;1.30;;;;;;;18.14;100.00;101152.50;5013018;28;20071;-64
2023/08/29 08:48:23;;;;;;;4.53;0.98;;;;;;;18.11;100.00;101160.81;4988114;28;20050;-64
2023/08/29 08:50:50;;;;;;;1.50;0.77;;;;;;;18.28;100.00;101151.63;5009842;28;20085;-64
2023/08/29 08:53:20;;;;;;;1.92;1.00;;;;;;;18.35;100.00;101154.34;5003735;28;20046;-64
2023/08/29 08:55:49;;;;;;;2.20;1.00;;;;;;;18.39;100.00;101150.31;5008823;28;20061;-65
2023/08/29 08:58:17;;;;;;;3.88;0.90;;;;;;;18.55;100.00;101146.56;5013500;28;20063;-64
2023/08/29 09:00:44;;;;;;;2.50;1.00;;;;;;;18.70;100.00;101144.66;5017535;28;20564;-64
2023/08/29 09:03:13;;;;;;;5.70;1.00;;;;;;;18.69;100.00;101147.50;5018890;28;20053;-65
2023/08/29 09:05:41;;;;;;;1.90;0.82;;;;;;;18.70;95.53;101154.44;5008155;28;20132;-64
2023/08/29 09:08:08;;;;;;;2.38;0.88;;;;;;;18.74;97.75;101143.25;5013362;28;20320;-64
2023/08/29 09:10:39;;;;;;;2.00;0.90;;;;;;;18.82;94.28;101152.09;5000614;28;20042;-64
2023/08/29 09:13:06;;;;;;;1.50;0.65;;;;;;;18.88;97.16;101143.38;5009204;28;20438;-64
2023/08/29 09:15:34;;;;;;;4.40;0.70;;;;;;;19.04;95.24;101148.41;5004729;28;20092;-65
2023/08/29 09:18:00;;;;;;;2.30;0.63;;;;;;;19.12;91.97;101144.78;5016920;28;20077;-64
2023/08/29 09:20:29;;;;;;;2.38;0.63;;;;;;;19.20;93.53;101143.78;5009314;28;20060;-66
2023/08/29 09:22:55;;;;;;;4.03;0.80;;;;;;;19.08;93.16;101141.66;5011024;28;20123;-66
2023/08/29 09:25:24;;;;;;;3.05;0.80;;;;;;;19.25;92.45;101142.19;5017031;28;20119;-65
2023/08/29 09:27:50;;;;;;;2.53;0.90;;;;;;;19.51;95.90;101154.00;5006158;28;20058;-66
2023/08/29 09:30:18;;;;;;;1.80;0.60;;;;;;;19.42;86.05;101148.00;5016459;28;20129;-64
2023/08/29 09:32:46;;;;;;;1.30;0.60;;;;;;;19.42;88.25;101155.16;5009331;28;20483;-64
2023/08/29 09:35:15;;;;;;;4.40;0.70;;;;;;;19.44;88.92;101153.13;5015634;28;20064;-65
2023/08/29 09:37:50;;;;;;;3.20;0.90;;;;;;;19.53;89.67;101151.94;5003941;28;20087;-64
2023/08/29 09:40:17;;;;;;;1.67;0.80;;;;;;;19.69;92.36;101156.94;5002809;28;20447;-65
2023/08/29 09:43:04;;;;;;;2.10;0.90;;;;;;;19.95;92.73;101150.09;5008555;28;20042;-65
2023/08/29 09:45:32;;;;;;;1.80;0.70;;;;;;;19.98;88.94;101149.69;5004571;28;20676;-64
2023/08/29 09:48:05;;;;;;;1.27;0.82;;;;;;;19.95;85.46;101150.94;5013844;28;20053;-64
2023/08/29 09:50:34;;;;;;;1.80;0.80;;;;;;;19.91;88.35;101147.00;4988426;28;20085;-65
2023/08/29 09:53:02;;;;;;;5.63;1.00;;;;;;;20.03;87.40;101144.59;5006036;28;20537;-64
2023/08/29 09:55:39;;;;;;;1.55;0.80;;;;;;;20.28;89.06;101138.69;5003007;28;20089;-64
2023/08/29 09:58:07;;;;;;;2.00;0.90;;;;;;;20.31;85.62;101141.78;5010495;28;20092;-64
2023/08/29 10:00:36;;;;;;;5.93;0.95;;;;;;;20.64;85.01;101141.00;4997644;28;20621;-64
2023/08/29 10:03:07;;;;;;;1.70;0.80;;;;;;;20.53;81.91;101139.75;5021442;28;20045;-63
2023/08/29 10:05:35;;;;;;;3.00;0.90;;;;;;;20.89;85.32;101133.19;5003601;28;20050;-65
2023/08/29 10:08:13;;;;;;;3.92;1.08;;;;;;;20.98;81.81;101122.31;5008480;28;20060;-65
2023/08/29 10:10:43;;;;;;;1.48;0.90;;;;;;;21.02;82.22;101127.03;5023521;28;20099;-64
2023/08/29 10:13:11;;;;;;;3.28;0.93;;;;;;;21.25;80.80;101123.91;5007712;28;20057;-64
2023/08/29 10:15:41;;;;;;;3.95;1.08;;;;;;;21.52;80.98;101126.50;5015672;28;20057;-64
2023/08/29 10:18:08;;;;;;;1.50;0.90;;;;;;;21.79;77.09;101121.84;5008641;28;20691;-64
2023/08/29 10:20:37;;;;;;;2.20;0.90;;;;;;;22.01;75.48;101126.88;5003255;28;20133;-65
2023/08/29 10:23:06;;;;;;;2.83;1.10;;;;;;;22.05;74.78;101125.41;5006643;28;20104;-65
2023/08/29 10:25:36;;;;;;;0.95;0.70;;;;;;;22.02;70.81;101117.84;5020512;28;20057;-65
2023/08/29 10:28:04;;;;;;;2.00;1.00;;;;;;;21.82;71.93;101124.09;5006498;28;20100;-65
2023/08/29 10:30:32;;;;;;;2.60;0.95;;;;;;;21.87;71.29;101124.25;5011640;28;20060;-64
2023/08/29 10:33:00;;;;;;;2.30;0.90;;;;;;;21.96;71.87;101121.38;5007418;28;20077;-65
2023/08/29 10:35:31;;;;;;;1.83;1.00;;;;;;;22.18;68.23;101124.50;4999809;28;20108;-65
2023/08/29 10:38:00;;;;;;;1.83;0.88;;;;;;;22.59;70.29;101113.31;5007969;28;20339;-64
2023/08/29 10:40:36;;;;;;;2.42;1.45;;;;;;;23.07;73.84;101109.19;5000884;28;20079;-64
2023/08/29 10:43:03;;;;;;;2.42;0.82;;;;;;;23.07;65.06;101103.81;5008727;28;20133;-65
2023/08/29 10:45:46;;;;;;;2.13;0.90;;;;;;;22.76;62.87;101108.25;5015308;28;20085;-65
2023/08/29 10:48:19;;;;;;;2.60;1.10;;;;;;;22.70;63.04;101104.59;4997335;28;20132;-64
2023/08/29 10:50:48;;;;;;;2.70;1.20;;;;;;;22.65;63.21;101107.09;5007691;28;20676;-65
2023/08/29 10:53:19;;;;;;;2.88;1.27;;;;;;;22.83;63.12;101105.50;4999878;28;20057;-65
2023/08/29 10:56:02;;;;;;;3.78;1.40;;;;;;;23.04;66.56;101102.41;5015482;28;20068;-65
2023/08/29 10:58:38;;;;;;;2.42;1.17;;;;;;;22.73;64.10;101102.50;5008759;28;20049;-64
2023/08/29 11:01:23;;;;;;;2.15;1.10;;;;;;;22.25;62.68;101109.28;5010157;28;20070;-65
2023/08/29 11:03:50;;;;;;;3.00;1.58;;;;;;;22.04;65.77;101110.41;5012577;28;20148;-65
2023/08/29 11:06:18;;;;;;;3.85;1.70;;;;;;;21.86;67.60;101100.47;5002834;28;20418;-65
2023/08/29 11:08:45;;;;;;;2.40;1.30;;;;;;;21.90;72.17;101101.69;5006828;28;20081;-64
2023/08/29 11:11:13;;;;;;;2.47;1.50;;;;;;;21.77;70.20;101091.88;5010008;28;20409;-64
2023/08/29 11:14:03;;;;;;;5.32;2.00;;;;;;;21.47;72.66;101091.63;5022152;28;20322;-64
2023/08/29 11:17:12;;;;;;;2.80;1.75;;;;;;;21.39;75.24;101091.84;5007749;28;20084;-64
2023/08/29 11:19:39;;;;;;;3.05;1.85;;;;;;;21.45;80.11;101083.00;5006583;28;20051;-64
2023/08/29 11:22:08;;;;;;;6.40;2.08;;;;;;;21.47;81.78;101092.44;5013732;28;20076;-64